Time;durP1;ratioP1;P1;durP2;ratioP2;P2;SDS_P1;SDS_P2;PMS_P1;PMS_P2;Temp;Humidity;BMP_temperature;BMP_pressure;BME280_temperature;BME280_humidity;BME280_pressure;Samples;Min_cycle;Max_cycle;Signal;HPM_P1;HPM_P2
2022/05/17 00:00:53;;;;;;;0.88;0.70;;;19.00;99.90;;;;;;5282187;28;20043;-73
2022/05/17 00:03:27;;;;;;;1.08;1.02;;;19.00;99.90;;;;;;5278813;28;20368;-73
2022/05/17 00:05:58;;;;;;;1.50;1.40;;;19.10;99.90;;;;;;5254536;28;20057;-72
2022/05/17 00:08:29;;;;;;;1.05;1.02;;;19.10;99.90;;;;;;5253212;27;20472;-73
2022/05/17 00:11:03;;;;;;;2.95;0.98;;;19.10;99.90;;;;;;5286035;28;20031;-73
2022/05/17 00:13:34;;;;;;;1.33;1.23;;;19.10;99.90;;;;;;5266415;28;20025;-73
2022/05/17 00:16:06;;;;;;;1.00;0.90;;;19.10;99.90;;;;;;5250806;28;20035;-74
2022/05/17 00:18:38;;;;;;;0.82;0.80;;;19.10;99.90;;;;;;5286794;28;20089;-73
2022/05/17 00:21:15;;;;;;;2.53;1.05;;;19.10;99.90;;;;;;5251501;28;20035;-73
2022/05/17 00:23:47;;;;;;;1.75;0.95;;;19.20;99.90;;;;;;5286298;28;20191;-72
2022/05/17 00:26:18;;;;;;;0.90;0.90;;;19.20;99.90;;;;;;5285802;28;20024;-72
2022/05/17 00:28:53;;;;;;;1.73;0.95;;;19.30;99.90;;;;;;5284972;28;20019;-72
2022/05/17 00:31:24;;;;;;;0.80;0.75;;;19.30;99.90;;;;;;5264297;28;20027;-72
2022/05/17 00:33:58;;;;;;;5.65;1.23;;;19.30;99.90;;;;;;5259687;28;20039;-72
2022/05/17 00:36:33;;;;;;;1.52;1.02;;;19.30;99.90;;;;;;5270440;27;20027;-72
2022/05/17 00:39:10;;;;;;;2.15;1.15;;;19.30;99.90;;;;;;5291909;27;20032;-71
2022/05/17 00:41:41;;;;;;;0.70;0.70;;;19.30;99.90;;;;;;5285264;28;20218;-74
2022/05/17 00:47:26;;;;;;;3.78;0.85;;;19.30;99.90;;;;;;5285578;28;20026;-74
2022/05/17 00:50:11;;;;;;;1.35;1.15;;;19.30;99.90;;;;;;5282088;28;20041;-73
2022/05/17 00:52:51;;;;;;;2.88;1.20;;;19.30;99.90;;;;;;5284916;28;20035;-74
2022/05/17 00:55:27;;;;;;;1.00;0.77;;;19.30;99.90;;;;;;5283527;28;20350;-74
2022/05/17 00:58:08;;;;;;;1.35;1.00;;;19.30;99.90;;;;;;5284882;28;20049;-73
2022/05/17 01:00:53;;;;;;;1.05;1.00;;;19.30;99.90;;;;;;5264500;28;20031;-73
2022/05/17 01:03:26;;;;;;;2.30;1.17;;;19.30;99.90;;;;;;5264991;28;20026;-74
2022/05/17 01:05:58;;;;;;;3.50;0.93;;;19.30;99.90;;;;;;5272010;28;20039;-73
2022/05/17 01:08:29;;;;;;;1.90;1.27;;;19.30;99.90;;;;;;5272582;27;20019;-74
2022/05/17 01:11:03;;;;;;;2.65;1.70;;;19.30;99.90;;;;;;5277521;28;20020;-73
2022/05/17 01:16:32;;;;;;;0.75;0.75;;;19.20;99.90;;;;;;5273089;28;20212;-74
2022/05/17 01:19:06;;;;;;;1.55;0.77;;;19.20;99.90;;;;;;5282970;28;20024;-73
2022/05/17 01:21:41;;;;;;;1.00;0.90;;;19.20;99.90;;;;;;5283360;28;20030;-73
2022/05/17 01:24:12;;;;;;;;;;;19.20;99.90;;;;;;5278620;28;20063;-72
2022/05/17 01:26:49;;;;;;;0.98;0.60;;;19.20;99.90;;;;;;5283988;28;19904;-72
2022/05/17 01:29:21;;;;;;;0.80;0.80;;;19.20;99.90;;;;;;5262219;28;20034;-73
2022/05/17 01:31:54;;;;;;;1.63;0.77;;;19.20;99.90;;;;;;5285016;28;20017;-73
2022/05/17 01:34:27;;;;;;;0.70;0.70;;;19.20;99.90;;;;;;5285908;28;20027;-72
2022/05/17 01:37:03;;;;;;;0.85;0.85;;;19.20;99.90;;;;;;5267438;28;20035;-73
2022/05/17 01:39:34;;;;;;;1.00;0.90;;;19.20;99.90;;;;;;5266163;28;20023;-73
2022/05/17 01:42:10;;;;;;;1.65;0.88;;;19.20;99.90;;;;;;5283336;28;20024;-72
2022/05/17 01:44:46;;;;;;;1.13;1.05;;;19.20;99.90;;;;;;5283741;28;20024;-73
2022/05/17 01:47:17;;;;;;;1.10;1.00;;;19.20;99.90;;;;;;5263415;28;20029;-72
2022/05/17 01:49:48;;;;;;;0.90;0.80;;;19.10;99.90;;;;;;5278258;28;20035;-73
2022/05/17 01:52:20;;;;;;;0.93;0.90;;;19.10;99.90;;;;;;5260134;28;20244;-73
2022/05/17 01:54:54;;;;;;;0.60;0.60;;;19.10;99.90;;;;;;5283526;28;20027;-73
2022/05/17 01:57:26;;;;;;;2.03;1.08;;;19.00;99.90;;;;;;5263858;28;20034;-73
2022/05/17 01:59:59;;;;;;;1.00;0.90;;;19.10;99.90;;;;;;5270051;28;20030;-73
2022/05/17 02:02:31;;;;;;;1.95;1.23;;;19.00;99.90;;;;;;5265069;28;20026;-72
2022/05/17 02:05:12;;;;;;;1.83;1.15;;;19.10;99.90;;;;;;5261659;27;20265;-72
2022/05/17 02:07:46;;;;;;;2.10;0.88;;;19.10;99.90;;;;;;5291195;27;20214;-71
2022/05/17 02:10:25;;;;;;;0.98;0.93;;;19.10;99.90;;;;;;5265181;28;20026;-74
2022/05/17 02:12:58;;;;;;;1.05;0.98;;;19.10;99.90;;;;;;5282256;28;20034;-72
2022/05/17 02:15:29;;;;;;;2.80;1.15;;;19.10;99.90;;;;;;5280905;28;20026;-73
2022/05/17 02:18:05;;;;;;;1.17;1.02;;;19.00;99.90;;;;;;5245988;28;20036;-73
2022/05/17 02:20:36;;;;;;;0.98;0.63;;;18.90;99.90;;;;;;5260111;28;20027;-73
2022/05/17 02:23:07;;;;;;;0.80;0.52;;;18.90;99.90;;;;;;5266339;28;20122;-74
2022/05/17 02:25:38;;;;;;;1.25;1.10;;;18.90;99.90;;;;;;5269156;28;20150;-73
2022/05/17 02:28:10;;;;;;;0.85;0.85;;;18.90;99.90;;;;;;5271274;28;20028;-73
2022/05/17 02:30:46;;;;;;;0.85;0.77;;;18.90;99.90;;;;;;5245016;28;20024;-72
2022/05/17 02:33:20;;;;;;;0.68;0.68;;;18.90;99.90;;;;;;5262524;28;20022;-74
2022/05/17 02:35:51;;;;;;;0.82;0.82;;;18.90;99.90;;;;;;5256542;27;20015;-73
2022/05/17 02:38:26;;;;;;;1.95;0.88;;;18.90;99.90;;;;;;5304573;27;20035;-73
2022/05/17 02:40:59;;;;;;;0.55;0.55;;;18.90;99.90;;;;;;5304360;27;20080;-74
2022/05/17 02:43:34;;;;;;;0.93;0.93;;;19.00;99.90;;;;;;5304823;27;20204;-74
2022/05/17 02:46:08;;;;;;;0.90;0.90;;;18.90;99.90;;;;;;5292493;27;20380;-73
2022/05/17 02:48:40;;;;;;;1.33;0.80;;;18.90;99.90;;;;;;5283600;28;20046;-73
2022/05/17 02:51:17;;;;;;;1.20;1.05;;;18.90;99.90;;;;;;5265397;28;20028;-74
2022/05/17 02:53:49;;;;;;;1.00;0.93;;;18.90;99.90;;;;;;5260579;28;20031;-73
2022/05/17 02:56:21;;;;;;;0.70;0.70;;;18.80;99.90;;;;;;5252629;28;20036;-73
2022/05/17 02:58:57;;;;;;;1.05;0.98;;;18.80;99.90;;;;;;5263502;28;20020;-73
2022/05/17 03:01:28;;;;;;;0.80;0.80;;;18.80;99.90;;;;;;5264229;28;20028;-73
2022/05/17 03:04:01;;;;;;;1.30;0.77;;;18.80;99.90;;;;;;5265236;28;20026;-73
2022/05/17 03:06:32;;;;;;;7.55;1.40;;;18.80;99.90;;;;;;5289303;27;20224;-73
2022/05/17 03:09:03;;;;;;;1.13;0.98;;;18.80;99.90;;;;;;5282815;28;20053;-73
2022/05/17 03:11:35;;;;;;;0.90;0.80;;;18.70;99.90;;;;;;5283240;28;20353;-73
2022/05/17 03:14:11;;;;;;;0.95;0.88;;;18.70;99.90;;;;;;5277847;28;20038;-74
2022/05/17 03:16:43;;;;;;;1.17;0.90;;;18.60;99.90;;;;;;5262621;28;20350;-72
2022/05/17 03:19:14;;;;;;;0.88;0.75;;;18.60;99.90;;;;;;5262015;28;20028;-73
2022/05/17 03:21:48;;;;;;;1.08;1.05;;;18.50;99.90;;;;;;5260563;28;20032;-72
2022/05/17 03:24:19;;;;;;;1.23;1.10;;;18.30;99.90;;;;;;5259543;28;20337;-72
2022/05/17 03:26:52;;;;;;;1.10;1.00;;;18.20;99.90;;;;;;5263954;28;20221;-72
2022/05/17 03:29:24;;;;;;;1.23;0.90;;;17.90;99.90;;;;;;5264821;28;20020;-71
2022/05/17 03:31:59;;;;;;;0.85;0.65;;;17.80;99.90;;;;;;5262115;28;20023;-72
2022/05/17 03:34:31;;;;;;;0.75;0.70;;;17.70;99.90;;;;;;5259657;28;20035;-72
2022/05/17 03:37:05;;;;;;;1.20;1.00;;;17.70;99.90;;;;;;5292795;28;20027;-72
2022/05/17 03:39:43;;;;;;;0.60;0.60;;;17.70;99.90;;;;;;5303599;28;20054;-73
2022/05/17 03:42:17;;;;;;;0.90;0.85;;;17.70;99.90;;;;;;5304082;27;20193;-72
2022/05/17 03:44:48;;;;;;;1.73;1.10;;;17.70;99.90;;;;;;5307631;27;20399;-73
2022/05/17 03:47:19;;;;;;;1.00;0.98;;;17.80;99.90;;;;;;5306680;27;20120;-73
2022/05/17 03:49:53;;;;;;;1.65;1.13;;;17.90;99.90;;;;;;5271595;27;20061;-73
2022/05/17 03:52:26;;;;;;;0.82;0.82;;;18.10;99.90;;;;;;5300180;27;20332;-74
2022/05/17 03:55:01;;;;;;;1.13;1.00;;;18.20;99.90;;;;;;5285085;27;20314;-73
2022/05/17 03:57:35;;;;;;;1.23;1.08;;;18.30;99.90;;;;;;5282543;28;20023;-73
2022/05/17 04:00:11;;;;;;;0.85;0.80;;;18.30;99.90;;;;;;5281948;28;20030;-73
2022/05/17 04:02:45;;;;;;;2.55;0.80;;;18.30;99.90;;;;;;5283388;28;20031;-72
2022/05/17 04:05:20;;;;;;;0.73;0.73;;;18.30;99.90;;;;;;5282866;27;20055;-73
2022/05/17 04:08:01;;;;;;;;;;;18.20;99.90;;;;;;5292246;27;20020;-71
2022/05/17 04:10:36;;;;;;;0.68;0.68;;;18.20;99.90;;;;;;5305879;27;20180;-72
2022/05/17 04:13:10;;;;;;;1.33;1.23;;;18.10;99.90;;;;;;5307021;27;20035;-72
2022/05/17 04:15:41;;;;;;;1.00;0.90;;;18.00;99.90;;;;;;5307037;27;20029;-74
2022/05/17 04:18:13;;;;;;;1.02;0.90;;;17.80;99.90;;;;;;5271372;27;20252;-72
2022/05/17 04:20:44;;;;;;;1.23;0.88;;;17.80;99.90;;;;;;5229352;28;20337;-72
2022/05/17 04:23:18;;;;;;;1.00;0.77;;;17.60;99.90;;;;;;5284031;28;20031;-73
2022/05/17 04:25:49;;;;;;;1.03;1.03;;;17.50;99.90;;;;;;5267122;28;20027;-73
2022/05/17 04:28:22;;;;;;;0.88;0.88;;;17.40;99.90;;;;;;5266422;28;20283;-72
2022/05/17 04:30:54;;;;;;;1.58;1.10;;;17.20;99.90;;;;;;5285186;28;20028;-71
2022/05/17 04:33:34;;;;;;;0.80;0.80;;;16.90;99.90;;;;;;5284488;28;20024;-72
2022/05/17 04:36:08;;;;;;;1.40;1.30;;;16.60;99.90;;;;;;5274798;27;20025;-72
2022/05/17 04:38:40;;;;;;;2.80;1.35;;;16.30;99.90;;;;;;5306120;27;20121;-73
2022/05/17 04:41:11;;;;;;;0.88;0.88;;;16.20;99.90;;;;;;5287869;27;20221;-72
2022/05/17 04:43:42;;;;;;;1.17;1.08;;;16.00;99.90;;;;;;5306455;27;20343;-73
2022/05/17 04:46:17;;;;;;;1.95;1.10;;;15.90;99.90;;;;;;5306974;27;20033;-74
2022/05/17 04:48:51;;;;;;;1.48;1.10;;;15.90;99.90;;;;;;5287262;27;20058;-74
2022/05/17 04:51:24;;;;;;;1.20;1.10;;;15.80;99.90;;;;;;5284877;27;20039;-71
2022/05/17 04:53:56;;;;;;;4.07;1.10;;;15.80;99.90;;;;;;5265334;28;20034;-72
2022/05/17 04:56:30;;;;;;;6.47;1.95;;;15.80;99.90;;;;;;5249294;28;20483;-73
2022/05/17 04:59:02;;;;;;;2.97;1.52;;;15.90;99.90;;;;;;5249161;28;20038;-73
2022/05/17 05:01:34;;;;;;;1.17;1.02;;;15.90;99.90;;;;;;5284650;28;20220;-70
2022/05/17 05:04:05;;;;;;;1.63;1.38;;;16.00;99.90;;;;;;5249009;28;20297;-72
2022/05/17 05:06:38;;;;;;;1.60;1.50;;;16.10;99.90;;;;;;5272985;28;20229;-70
2022/05/17 05:09:13;;;;;;;1.10;1.00;;;16.20;99.90;;;;;;5266987;28;20028;-71
2022/05/17 05:11:44;;;;;;;1.17;1.05;;;16.30;99.90;;;;;;5284059;28;20015;-71
2022/05/17 05:14:18;;;;;;;1.20;1.10;;;16.30;99.90;;;;;;5262171;28;20031;-70
2022/05/17 05:16:51;;;;;;;1.42;0.95;;;16.40;99.90;;;;;;5284038;28;20042;-71
2022/05/17 05:19:25;;;;;;;1.50;1.10;;;16.30;99.90;;;;;;5282540;27;20039;-72
2022/05/17 05:21:59;;;;;;;1.10;1.00;;;16.30;99.90;;;;;;5264623;28;20205;-70
2022/05/17 05:24:31;;;;;;;1.20;1.05;;;16.40;99.90;;;;;;5284015;28;20023;-74
2022/05/17 05:27:04;;;;;;;1.23;1.20;;;16.30;99.90;;;;;;5283924;28;20016;-74
2022/05/17 05:29:35;;;;;;;1.60;1.50;;;16.20;99.90;;;;;;5264818;28;20106;-73
2022/05/17 05:32:07;;;;;;;2.15;1.38;;;16.10;99.90;;;;;;5280399;28;20035;-74
2022/05/17 05:34:38;;;;;;;1.30;1.20;;;16.10;99.90;;;;;;5265687;28;20033;-73
2022/05/17 05:37:15;;;;;;;1.63;1.52;;;16.20;99.90;;;;;;5272721;27;20508;-74
2022/05/17 05:39:51;;;;;;;2.83;1.35;;;16.20;99.90;;;;;;5258618;28;20027;-73
2022/05/17 05:42:22;;;;;;;1.70;1.60;;;16.30;99.90;;;;;;5267522;28;20020;-73
2022/05/17 05:44:55;;;;;;;2.20;1.30;;;16.40;99.90;;;;;;5262730;28;20031;-73
2022/05/17 05:47:29;;;;;;;2.22;1.38;;;16.40;99.90;;;;;;5272062;28;20228;-73
2022/05/17 05:50:03;;;;;;;3.17;2.20;;;16.40;99.90;;;;;;5282578;28;20024;-73
2022/05/17 05:52:41;;;;;;;1.17;1.07;;;16.50;99.90;;;;;;5281040;28;20022;-73
2022/05/17 05:55:21;;;;;;;2.25;1.80;;;16.50;99.90;;;;;;5283717;28;20031;-73
2022/05/17 05:57:54;;;;;;;1.52;1.33;;;16.60;99.90;;;;;;5258839;28;20042;-73
2022/05/17 06:00:31;;;;;;;0.88;0.88;;;16.70;99.90;;;;;;5268193;28;20023;-74
2022/05/17 06:03:05;;;;;;;1.30;1.20;;;16.80;99.90;;;;;;5266394;28;20031;-71
2022/05/17 06:05:37;;;;;;;1.50;1.25;;;16.90;99.90;;;;;;5273087;28;20039;-72
2022/05/17 06:08:18;;;;;;;1.75;1.30;;;17.00;99.90;;;;;;5283811;28;20036;-72
2022/05/17 06:10:52;;;;;;;2.85;1.90;;;17.10;99.90;;;;;;5282942;28;20030;-72
2022/05/17 06:13:31;;;;;;;1.43;1.33;;;17.20;99.90;;;;;;5281774;28;20329;-73
2022/05/17 06:16:02;;;;;;;2.13;1.50;;;17.30;99.90;;;;;;5263923;28;20028;-73
2022/05/17 06:18:36;;;;;;;2.17;1.48;;;17.40;99.90;;;;;;5264645;28;20085;-73
2022/05/17 06:21:11;;;;;;;3.67;2.05;;;17.40;99.90;;;;;;5266485;28;20035;-73
2022/05/17 06:23:45;;;;;;;1.50;1.40;;;17.50;99.90;;;;;;5259508;28;20039;-73
2022/05/17 06:26:16;;;;;;;2.67;1.60;;;17.60;99.90;;;;;;5254027;28;20027;-73
2022/05/17 06:28:48;;;;;;;2.17;1.92;;;17.70;99.90;;;;;;5261457;28;20015;-73
2022/05/17 06:31:21;;;;;;;1.63;1.52;;;17.80;99.90;;;;;;5281995;28;20037;-73
2022/05/17 06:33:52;;;;;;;2.30;1.50;;;17.80;99.90;;;;;;5270485;28;20029;-73
2022/05/17 06:36:24;;;;;;;3.60;1.35;;;17.80;99.90;;;;;;5273891;27;20033;-73
2022/05/17 06:38:58;;;;;;;1.30;1.20;;;17.90;99.90;;;;;;5271709;28;20024;-73
2022/05/17 06:41:31;;;;;;;1.80;1.70;;;18.00;99.90;;;;;;5271428;28;20287;-73
2022/05/17 06:44:05;;;;;;;1.67;1.35;;;18.10;99.90;;;;;;5272111;28;20028;-74
2022/05/17 06:46:36;;;;;;;1.25;1.15;;;18.20;99.90;;;;;;5275026;28;20049;-74
2022/05/17 06:49:09;;;;;;;1.40;1.30;;;18.20;99.90;;;;;;5271046;28;20295;-73
2022/05/17 06:51:42;;;;;;;3.30;1.40;;;18.20;99.90;;;;;;5269585;28;20019;-73
2022/05/17 06:54:14;;;;;;;1.73;1.37;;;18.30;99.90;;;;;;5275080;28;20217;-73
2022/05/17 06:56:45;;;;;;;1.27;1.15;;;18.50;99.90;;;;;;5270954;28;20278;-73
2022/05/17 06:59:18;;;;;;;2.53;1.42;;;18.60;99.90;;;;;;5271534;28;20323;-73
2022/05/17 07:01:52;;;;;;;7.30;1.42;;;18.70;99.90;;;;;;5256654;28;20034;-73
2022/05/17 07:04:26;;;;;;;1.90;1.38;;;18.70;99.90;;;;;;5259568;28;20020;-72
2022/05/17 07:07:01;;;;;;;1.40;1.30;;;18.70;99.90;;;;;;5269695;28;20027;-72
2022/05/17 07:09:35;;;;;;;2.83;1.70;;;18.80;99.90;;;;;;5251416;28;20024;-73
2022/05/17 07:15:05;;;;;;;2.03;1.55;;;18.70;99.90;;;;;;5261467;28;20038;-72
2022/05/17 07:17:39;;;;;;;1.50;1.40;;;18.80;99.90;;;;;;5273170;28;20018;-73
2022/05/17 07:20:10;;;;;;;1.95;1.60;;;19.00;99.90;;;;;;5237429;28;20023;-73
2022/05/17 07:22:47;;;;;;;1.38;1.27;;;19.10;99.90;;;;;;5271893;28;20389;-73
2022/05/17 07:25:18;;;;;;;1.80;1.38;;;19.00;99.90;;;;;;5273152;28;20252;-72
2022/05/17 07:27:52;;;;;;;1.23;1.13;;;19.10;99.90;;;;;;5275035;28;20031;-73
2022/05/17 07:30:23;;;;;;;2.00;1.20;;;19.10;99.90;;;;;;5254119;28;20043;-72
2022/05/17 07:32:59;;;;;;;1.83;1.20;;;19.10;99.90;;;;;;5263819;28;20019;-69
2022/05/17 07:35:30;;;;;;;2.10;1.40;;;19.20;99.90;;;;;;5283691;28;20023;-69
2022/05/17 07:38:03;;;;;;;2.05;1.55;;;19.30;99.90;;;;;;5264873;28;20348;-69
2022/05/17 07:40:36;;;;;;;1.80;1.35;;;19.10;99.90;;;;;;5258867;28;20368;-69
2022/05/17 07:43:15;;;;;;;3.40;1.90;;;19.40;99.90;;;;;;5256256;28;20282;-68
2022/05/17 07:45:49;;;;;;;2.47;1.60;;;19.50;99.90;;;;;;5276241;28;20030;-69
2022/05/17 07:48:23;;;;;;;3.83;1.83;;;19.40;99.90;;;;;;5269918;28;20255;-69
2022/05/17 07:50:57;;;;;;;5.50;2.10;;;19.50;99.90;;;;;;5271443;28;20217;-69
2022/05/17 07:53:31;;;;;;;2.93;1.60;;;19.60;99.90;;;;;;5271006;28;20519;-69
2022/05/17 07:56:04;;;;;;;2.50;1.63;;;19.50;99.90;;;;;;5270810;28;20198;-69
2022/05/17 07:58:35;;;;;;;2.50;2.30;;;19.40;99.90;;;;;;5270920;28;20562;-68
2022/05/17 08:01:07;;;;;;;2.10;1.90;;;19.30;99.90;;;;;;5270035;28;20054;-69
2022/05/17 08:03:42;;;;;;;1.42;1.33;;;19.40;99.90;;;;;;5273786;28;20019;-69
2022/05/17 08:06:18;;;;;;;1.80;1.70;;;19.30;99.90;;;;;;5275085;27;20207;-69
2022/05/17 08:08:50;;;;;;;2.80;1.42;;;19.00;99.90;;;;;;5272866;28;20015;-69
2022/05/17 08:11:24;;;;;;;5.00;2.00;;;18.80;99.90;;;;;;5271048;28;20038;-69
2022/05/17 08:14:03;;;;;;;2.88;2.08;;;18.80;99.90;;;;;;5272289;28;20023;-68
2022/05/17 08:16:35;;;;;;;5.70;1.65;;;18.90;99.90;;;;;;5255002;28;20028;-69
2022/05/17 08:19:07;;;;;;;1.65;1.55;;;19.10;99.90;;;;;;5239359;28;20043;-69
2022/05/17 08:21:39;;;;;;;2.88;1.67;;;19.30;99.90;;;;;;5265515;28;20123;-68
2022/05/17 08:24:10;;;;;;;2.78;2.10;;;19.70;99.90;;;;;;5252239;28;20034;-68
2022/05/17 08:29:31;;;;;;;2.17;1.88;;;19.80;99.90;;;;;;5274931;28;20137;-69
2022/05/17 08:34:53;;;;;;;1.30;1.20;;;19.60;99.90;;;;;;5276906;28;20125;-69
2022/05/17 08:37:25;;;;;;;2.58;1.77;;;19.40;99.90;;;;;;5287542;27;20036;-67
2022/05/17 08:39:56;;;;;;;1.45;1.35;;;19.10;99.90;;;;;;5283529;28;20353;-68
2022/05/17 08:42:45;;;;;;;1.42;1.33;;;19.60;99.90;;;;;;5262831;28;20039;-68
2022/05/17 08:45:32;;;;;;;1.85;1.40;;;19.90;99.90;;;;;;5258340;28;20024;-68
2022/05/17 08:48:10;;;;;;;3.42;1.25;;;19.90;99.90;;;;;;5282625;28;20225;-68
2022/05/17 08:50:51;;;;;;;1.40;1.30;;;20.00;99.90;;;;;;5270111;28;20308;-69
2022/05/17 08:53:24;;;;;;;1.52;1.30;;;20.10;99.90;;;;;;5284998;28;20053;-69
2022/05/17 08:55:59;;;;;;;2.00;1.50;;;20.00;99.90;;;;;;5283207;28;20046;-68
2022/05/17 08:58:31;;;;;;;;;;;20.40;99.90;;;;;;5283883;28;20234;-68
2022/05/17 09:01:21;;;;;;;2.50;1.27;;;20.20;99.90;;;;;;5282678;28;19907;-68
2022/05/17 09:03:56;;;;;;;2.15;1.30;;;20.50;99.90;;;;;;5282367;28;20053;-67
2022/05/17 09:06:51;;;;;;;1.70;1.50;;;20.50;99.90;;;;;;5251087;28;20040;-67
2022/05/17 09:09:32;;;;;;;2.35;2.08;;;20.80;99.90;;;;;;5276014;27;20050;-68
2022/05/17 09:12:48;;;;;;;2.28;1.13;;;20.80;99.90;;;;;;5264706;28;20019;-73
2022/05/17 09:15:22;;;;;;;1.85;1.50;;;20.80;99.90;;;;;;5190171;28;20056;-71
2022/05/17 09:17:57;;;;;;;1.45;1.23;;;21.10;99.90;;;;;;5178338;28;20040;-73
2022/05/17 09:20:36;;;;;;;3.17;1.77;;;21.40;99.90;;;;;;5255653;28;20036;-73
2022/05/17 09:23:09;;;;;;;2.58;1.38;;;21.60;99.90;;;;;;5272037;28;20034;-73
2022/05/17 09:26:08;;;;;;;2.25;1.55;;;21.30;99.90;;;;;;5265207;28;20340;-72
2022/05/17 09:29:11;;;;;;;1.52;1.27;;;21.20;99.90;;;;;;5269348;28;20035;-73
2022/05/17 09:31:51;;;;;;;1.63;1.50;;;21.80;99.90;;;;;;5270254;28;20040;-73
2022/05/17 09:34:38;;;;;;;1.48;1.25;;;21.80;99.90;;;;;;5259839;28;20240;-73
2022/05/17 09:37:20;;;;;;;1.42;1.33;;;21.40;99.90;;;;;;5277284;27;20043;-73
2022/05/17 09:39:56;;;;;;;2.35;1.52;;;21.50;99.90;;;;;;5279467;28;20066;-73
2022/05/17 09:42:37;;;;;;;1.60;1.48;;;21.50;99.90;;;;;;5280033;28;20019;-73
2022/05/17 09:45:18;;;;;;;2.83;1.42;;;21.40;99.90;;;;;;5264706;28;20040;-73
2022/05/17 09:48:00;;;;;;;2.08;1.67;;;21.50;99.90;;;;;;5282818;28;20042;-72
2022/05/17 09:53:42;;;;;;;3.25;1.80;;;22.50;99.90;;;;;;5281581;28;20030;-72
2022/05/17 09:56:16;;;;;;;2.85;2.10;;;21.70;99.90;;;;;;5275795;28;20022;-73
2022/05/17 09:58:47;;;;;;;2.67;1.95;;;21.30;99.90;;;;;;5280286;28;20031;-73
2022/05/17 10:01:40;;;;;;;2.50;2.00;;;20.90;99.90;;;;;;5265138;28;20027;-75
2022/05/17 10:04:21;;;;;;;2.63;2.05;;;21.00;99.90;;;;;;5236052;28;20045;-73
2022/05/17 10:06:56;;;;;;;2.08;1.60;;;21.10;99.90;;;;;;5254036;28;20362;-73
2022/05/17 10:09:35;;;;;;;2.90;2.10;;;21.30;99.90;;;;;;5269142;28;20024;-72
2022/05/17 10:12:22;;;;;;;2.33;1.55;;;21.60;99.90;;;;;;5275835;28;20012;-73
2022/05/17 10:14:58;;;;;;;2.38;2.03;;;20.70;99.90;;;;;;5255773;28;20050;-73
2022/05/17 10:17:56;;;;;;;3.08;1.75;;;20.50;99.90;;;;;;5276704;28;20189;-72
2022/05/17 10:20:43;;;;;;;3.28;1.48;;;21.10;99.90;;;;;;5262587;28;20028;-72
2022/05/17 10:23:32;;;;;;;3.42;1.77;;;21.90;99.90;;;;;;5256322;28;20027;-72
2022/05/17 10:26:15;;;;;;;2.00;1.73;;;21.30;99.90;;;;;;5282002;28;20046;-72
2022/05/17 10:29:02;;;;;;;2.15;1.83;;;21.00;99.90;;;;;;5256040;28;20048;-72
2022/05/17 10:32:08;;;;;;;3.95;1.90;;;20.60;99.90;;;;;;5276056;28;20031;-73
2022/05/17 10:34:53;;;;;;;3.72;2.30;;;20.50;99.90;;;;;;5250065;28;20035;-71
2022/05/17 10:37:40;;;;;;;2.70;1.90;;;20.40;99.90;;;;;;5273812;27;20248;-73
2022/05/17 10:40:26;;;;;;;1.92;1.73;;;20.60;99.90;;;;;;5283356;28;20084;-71
2022/05/17 10:43:00;;;;;;;4.32;1.60;;;20.40;99.90;;;;;;5267975;28;20028;-72
2022/05/17 10:45:33;;;;;;;2.53;1.55;;;20.90;99.90;;;;;;5282171;28;20333;-72
2022/05/17 10:48:07;;;;;;;3.35;1.90;;;21.10;99.90;;;;;;5254716;28;20527;-72
2022/05/17 10:50:48;;;;;;;1.77;1.65;;;20.90;99.90;;;;;;5279573;28;20050;-73
2022/05/17 10:53:57;;;;;;;2.15;1.77;;;20.70;99.90;;;;;;5269504;28;20032;-72
2022/05/17 10:56:31;;;;;;;1.75;1.55;;;19.80;99.90;;;;;;5256741;28;20040;-72
2022/05/17 10:59:22;;;;;;;2.88;1.85;;;19.10;99.90;;;;;;5282830;28;20194;-72
2022/05/17 11:02:26;;;;;;;2.20;1.67;;;18.60;99.90;;;;;;5283627;28;20027;-72
2022/05/17 11:05:12;;;;;;;4.43;1.90;;;18.60;99.90;;;;;;5270493;28;20050;-72
2022/05/17 11:08:05;;;;;;;1.75;1.65;;;18.60;99.90;;;;;;5263808;28;20039;-72
2022/05/17 11:11:07;;;;;;;1.98;1.52;;;18.70;99.90;;;;;;5274004;28;20028;-71
2022/05/17 11:14:19;;;;;;;2.85;1.73;;;18.30;99.90;;;;;;5242723;28;20059;-72
2022/05/17 11:17:19;;;;;;;2.90;2.28;;;18.20;99.90;;;;;;5225244;28;20230;-71
2022/05/17 11:20:18;;;;;;;2.65;2.20;;;18.10;99.90;;;;;;5244956;28;20020;-72
2022/05/17 11:23:08;;;;;;;1.58;1.48;;;18.00;99.90;;;;;;5278276;28;20045;-74
2022/05/17 11:25:55;;;;;;;2.42;1.83;;;17.70;99.90;;;;;;5280353;28;20015;-74
2022/05/17 11:28:45;;;;;;;2.67;2.35;;;17.50;99.90;;;;;;5279826;28;20034;-73
2022/05/17 11:31:22;;;;;;;1.38;1.27;;;17.40;99.90;;;;;;5274668;28;20023;-72
2022/05/17 11:34:22;;;;;;;2.17;1.80;;;17.50;99.90;;;;;;5273149;28;20363;-72
2022/05/17 11:36:58;;;;;;;2.38;2.17;;;17.80;99.90;;;;;;5279564;28;20562;-72
2022/05/17 11:39:37;;;;;;;3.10;1.63;;;18.30;99.90;;;;;;5277329;28;20023;-72
2022/05/17 11:42:33;;;;;;;1.83;1.67;;;19.40;99.90;;;;;;5271241;28;20030;-73
2022/05/17 11:45:45;;;;;;;3.25;1.75;;;19.60;99.90;;;;;;5271137;28;20040;-73
2022/05/17 11:48:25;;;;;;;3.10;1.73;;;20.30;99.90;;;;;;5272433;28;20503;-72
2022/05/17 11:51:01;;;;;;;1.67;1.45;;;21.60;99.90;;;;;;5270944;28;20028;-72
2022/05/17 11:53:41;;;;;;;1.88;1.40;;;22.30;99.90;;;;;;5271493;28;20020;-74
2022/05/17 11:56:13;;;;;;;2.53;2.13;;;21.50;99.90;;;;;;5275424;28;20033;-72
2022/05/17 11:58:50;;;;;;;1.92;1.73;;;20.30;99.90;;;;;;5252060;28;20024;-73
2022/05/17 12:01:31;;;;;;;2.50;2.17;;;20.30;99.90;;;;;;5268934;28;20016;-72
2022/05/17 12:04:28;;;;;;;3.22;2.20;;;20.10;99.90;;;;;;5275136;28;20023;-72
2022/05/17 12:07:21;;;;;;;3.25;2.38;;;19.90;99.90;;;;;;5242900;28;20226;-71
2022/05/17 12:10:18;;;;;;;4.45;2.20;;;19.80;99.90;;;;;;5261717;28;20043;-73
2022/05/17 12:13:08;;;;;;;2.13;1.58;;;19.80;99.90;;;;;;5274839;28;20028;-72
2022/05/17 12:15:52;;;;;;;3.38;2.00;;;19.30;99.90;;;;;;5279458;28;20031;-73
2022/05/17 12:18:34;;;;;;;3.38;1.85;;;18.50;99.90;;;;;;5276914;28;20035;-71
2022/05/17 12:21:25;;;;;;;4.70;1.80;;;18.50;99.90;;;;;;5278033;28;20326;-71
2022/05/17 12:24:27;;;;;;;2.85;1.85;;;18.40;99.90;;;;;;5265216;28;20209;-71
2022/05/17 12:27:20;;;;;;;4.22;2.17;;;18.30;99.90;;;;;;5280819;28;20352;-73
2022/05/17 12:33:36;;;;;;;2.40;2.20;;;18.90;99.90;;;;;;5274587;27;20024;-73
2022/05/17 12:36:26;;;;;;;1.90;1.55;;;19.40;99.90;;;;;;5278929;27;20364;-73
2022/05/17 12:45:01;;;;;;;1.60;1.42;;;22.30;99.90;;;;;;5279316;28;20027;-74
2022/05/17 12:47:42;;;;;;;1.90;1.27;;;22.20;99.90;;;;;;5273676;28;20020;-75
2022/05/17 12:50:44;;;;;;;1.58;1.40;;;23.30;99.90;;;;;;5271578;28;20051;-72
2022/05/17 12:53:24;;;;;;;1.58;1.27;;;24.00;99.90;;;;;;5276149;28;20024;-72
2022/05/17 12:56:08;;;;;;;2.97;1.50;;;23.80;99.90;;;;;;5277970;28;20221;-72
2022/05/17 12:58:56;;;;;;;1.65;1.30;;;22.90;99.90;;;;;;5262992;28;20461;-73
2022/05/17 13:01:35;;;;;;;2.05;1.92;;;21.90;99.90;;;;;;5274627;28;20042;-71
2022/05/17 13:04:15;;;;;;;1.70;1.60;;;22.10;99.90;;;;;;5276100;28;20351;-72
2022/05/17 13:06:51;;;;;;;4.20;1.50;;;23.30;99.90;;;;;;5264524;28;20450;-72
2022/05/17 13:09:28;;;;;;;2.47;1.77;;;23.20;99.90;;;;;;5280902;27;20023;-73
2022/05/17 13:12:13;;;;;;;1.70;1.52;;;22.10;99.90;;;;;;5257994;28;20065;-72
2022/05/17 13:14:49;;;;;;;2.13;1.92;;;23.50;99.90;;;;;;5278401;28;20023;-72
2022/05/17 13:17:28;;;;;;;4.05;1.50;;;24.40;99.90;;;;;;5255253;28;20225;-74
2022/05/17 13:20:13;;;;;;;2.97;1.80;;;24.50;99.90;;;;;;5276942;28;20035;-74
2022/05/17 13:22:59;;;;;;;2.33;1.92;;;23.90;99.90;;;;;;5274988;28;20031;-73
2022/05/17 13:25:39;;;;;;;1.98;1.77;;;23.50;99.90;;;;;;5274274;28;20027;-73
2022/05/17 13:28:14;;;;;;;2.55;2.08;;;24.00;99.90;;;;;;5251672;28;20242;-73
2022/05/17 13:30:49;;;;;;;2.00;1.77;;;25.00;99.90;;;;;;5270826;28;20329;-73
2022/05/17 13:33:35;;;;;;;1.45;1.35;;;26.00;99.90;;;;;;5272839;28;20446;-71
2022/05/17 13:36:15;;;;;;;2.00;1.63;;;26.50;99.90;;;;;;5276066;27;20356;-71
2022/05/17 13:38:49;;;;;;;6.10;1.85;;;27.00;99.90;;;;;;5271255;28;20035;-73
2022/05/17 13:41:42;;;;;;;2.50;2.00;;;25.00;99.90;;;;;;5273983;28;20038;-73
2022/05/17 13:44:30;;;;;;;2.88;2.38;;;22.90;99.90;;;;;;5273034;28;20034;-71
2022/05/17 13:47:04;;;;;;;3.22;2.50;;;21.40;99.90;;;;;;5274543;28;20034;-71
2022/05/17 13:49:40;;;;;;;3.00;2.70;;;20.40;99.90;;;;;;5275315;28;20023;-71
2022/05/17 13:52:28;;;;;;;2.58;2.10;;;19.90;99.90;;;;;;5275055;28;20023;-73
2022/05/17 13:55:08;;;;;;;4.65;2.80;;;19.90;99.90;;;;;;5273343;28;20031;-72
2022/05/17 13:57:47;;;;;;;5.40;3.10;;;19.70;99.90;;;;;;5276798;28;20429;-71
2022/05/17 14:00:28;;;;;;;7.28;2.80;;;20.50;99.90;;;;;;5274286;27;20080;-73
2022/05/17 14:03:02;;;;;;;3.50;2.58;;;22.10;99.90;;;;;;5260461;28;20420;-72
2022/05/17 14:05:54;;;;;;;2.92;2.45;;;22.30;99.90;;;;;;5240952;28;20092;-73
2022/05/17 14:14:15;;;;;;;2.75;2.42;;;23.50;99.90;;;;;;5269746;28;20031;-72